sensor_id;sensor_type;location;lat;lon;timestamp;temperature;humidity
1429;DHT22;708;51.442;7.016;2023-03-04T00:00:29;7.80;1.00
1429;DHT22;708;51.442;7.016;2023-03-04T00:02:56;7.80;1.00
1429;DHT22;708;51.442;7.016;2023-03-04T00:05:24;7.80;1.00
1429;DHT22;708;51.442;7.016;2023-03-04T00:07:51;7.90;1.00
1429;DHT22;708;51.442;7.016;2023-03-04T00:10:18;7.90;1.00
1429;DHT22;708;51.442;7.016;2023-03-04T00:12:45;7.90;1.00
1429;DHT22;708;51.442;7.016;2023-03-04T00:15:12;7.90;1.00
1429;DHT22;708;51.442;7.016;2023-03-04T00:17:39;7.90;1.00
1429;DHT22;708;51.442;7.016;2023-03-04T00:20:08;7.90;1.00
1429;DHT22;708;51.442;7.016;2023-03-04T00:22:36;7.90;1.00
1429;DHT22;708;51.442;7.016;2023-03-04T00:25:04;7.90;1.00
1429;DHT22;708;51.442;7.016;2023-03-04T00:27:31;7.90;1.00
1429;DHT22;708;51.442;7.016;2023-03-04T00:29:58;7.90;1.00
1429;DHT22;708;51.442;7.016;2023-03-04T00:32:25;7.90;1.00
1429;DHT22;708;51.442;7.016;2023-03-04T00:34:51;7.90;1.00
1429;DHT22;708;51.442;7.016;2023-03-04T00:37:18;7.90;1.00
1429;DHT22;708;51.442;7.016;2023-03-04T00:39:46;7.90;1.00
1429;DHT22;708;51.442;7.016;2023-03-04T00:42:14;7.90;1.00
1429;DHT22;708;51.442;7.016;2023-03-04T00:44:42;7.90;1.00
1429;DHT22;708;51.442;7.016;2023-03-04T00:47:08;7.90;1.00
1429;DHT22;708;51.442;7.016;2023-03-04T00:49:35;7.90;1.00
1429;DHT22;708;51.442;7.016;2023-03-04T00:52:03;7.80;1.00
1429;DHT22;708;51.442;7.016;2023-03-04T00:54:30;7.80;1.00
1429;DHT22;708;51.442;7.016;2023-03-04T00:56:58;7.80;1.00
1429;DHT22;708;51.442;7.016;2023-03-04T00:59:25;7.90;1.00
1429;DHT22;708;51.442;7.016;2023-03-04T01:01:52;7.90;1.00
1429;DHT22;708;51.442;7.016;2023-03-04T01:04:19;7.90;1.00
1429;DHT22;708;51.442;7.016;2023-03-04T01:06:46;7.90;1.00
1429;DHT22;708;51.442;7.016;2023-03-04T01:09:13;7.90;1.00
1429;DHT22;708;51.442;7.016;2023-03-04T01:11:39;7.90;1.00
1429;DHT22;708;51.442;7.016;2023-03-04T01:14:08;7.90;1.00
1429;DHT22;708;51.442;7.016;2023-03-04T01:16:35;7.90;1.00
1429;DHT22;708;51.442;7.016;2023-03-04T01:19:02;7.90;1.00
1429;DHT22;708;51.442;7.016;2023-03-04T01:21:28;7.90;1.00
1429;DHT22;708;51.442;7.016;2023-03-04T01:23:58;7.90;1.00
1429;DHT22;708;51.442;7.016;2023-03-04T01:26:25;7.90;1.00
1429;DHT22;708;51.442;7.016;2023-03-04T01:28:52;7.90;1.00
1429;DHT22;708;51.442;7.016;2023-03-04T01:31:20;7.90;1.00
1429;DHT22;708;51.442;7.016;2023-03-04T01:33:47;7.90;1.00
1429;DHT22;708;51.442;7.016;2023-03-04T01:36:13;7.90;1.00
1429;DHT22;708;51.442;7.016;2023-03-04T01:38:40;7.80;1.00
1429;DHT22;708;51.442;7.016;2023-03-04T01:41:07;7.80;1.00
1429;DHT22;708;51.442;7.016;2023-03-04T01:43:35;7.90;1.00
1429;DHT22;708;51.442;7.016;2023-03-04T01:46:03;7.90;1.00
1429;DHT22;708;51.442;7.016;2023-03-04T01:48:34;7.80;1.00
1429;DHT22;708;51.442;7.016;2023-03-04T01:51:02;7.80;1.00
1429;DHT22;708;51.442;7.016;2023-03-04T01:53:32;7.80;1.00
1429;DHT22;708;51.442;7.016;2023-03-04T01:56:01;7.80;1.00
1429;DHT22;708;51.442;7.016;2023-03-04T01:58:32;7.70;1.00
1429;DHT22;708;51.442;7.016;2023-03-04T02:00:59;7.80;1.00
1429;DHT22;708;51.442;7.016;2023-03-04T02:03:26;7.80;1.00
1429;DHT22;708;51.442;7.016;2023-03-04T02:05:55;7.80;1.00
1429;DHT22;708;51.442;7.016;2023-03-04T02:08:23;7.80;1.00
1429;DHT22;708;51.442;7.016;2023-03-04T02:10:51;7.80;1.00
1429;DHT22;708;51.442;7.016;2023-03-04T02:13:20;7.80;1.00
1429;DHT22;708;51.442;7.016;2023-03-04T02:15:47;7.80;1.00
1429;DHT22;708;51.442;7.016;2023-03-04T02:18:17;7.80;1.00
1429;DHT22;708;51.442;7.016;2023-03-04T02:20:53;7.70;1.00
1429;DHT22;708;51.442;7.016;2023-03-04T02:23:28;7.70;1.00
1429;DHT22;708;51.442;7.016;2023-03-04T02:26:11;7.70;1.00
1429;DHT22;708;51.442;7.016;2023-03-04T02:28:38;7.70;1.00
1429;DHT22;708;51.442;7.016;2023-03-04T02:31:08;7.70;1.00
1429;DHT22;708;51.442;7.016;2023-03-04T02:33:40;7.60;1.00
1429;DHT22;708;51.442;7.016;2023-03-04T02:36:08;7.60;1.00
1429;DHT22;708;51.442;7.016;2023-03-04T02:38:36;7.60;1.00
1429;DHT22;708;51.442;7.016;2023-03-04T02:41:04;7.70;1.00
1429;DHT22;708;51.442;7.016;2023-03-04T02:43:32;7.70;1.00
1429;DHT22;708;51.442;7.016;2023-03-04T02:45:59;7.70;1.00
1429;DHT22;708;51.442;7.016;2023-03-04T02:48:26;7.70;1.00
1429;DHT22;708;51.442;7.016;2023-03-04T02:50:53;7.70;1.00
1429;DHT22;708;51.442;7.016;2023-03-04T02:53:20;7.70;1.00
1429;DHT22;708;51.442;7.016;2023-03-04T02:55:49;7.70;1.00
1429;DHT22;708;51.442;7.016;2023-03-04T02:58:16;7.60;1.00
1429;DHT22;708;51.442;7.016;2023-03-04T03:00:44;7.60;1.00
1429;DHT22;708;51.442;7.016;2023-03-04T03:03:11;7.60;1.00
1429;DHT22;708;51.442;7.016;2023-03-04T03:05:38;7.60;1.00
1429;DHT22;708;51.442;7.016;2023-03-04T03:08:06;7.60;1.00
1429;DHT22;708;51.442;7.016;2023-03-04T03:10:33;7.50;1.00
1429;DHT22;708;51.442;7.016;2023-03-04T03:12:59;7.50;1.00
1429;DHT22;708;51.442;7.016;2023-03-04T03:15:26;7.40;1.00
1429;DHT22;708;51.442;7.016;2023-03-04T03:17:54;7.40;1.00
1429;DHT22;708;51.442;7.016;2023-03-04T03:20:21;7.40;1.00
1429;DHT22;708;51.442;7.016;2023-03-04T03:22:48;7.40;1.00
1429;DHT22;708;51.442;7.016;2023-03-04T03:25:16;7.40;17.00
1429;DHT22;708;51.442;7.016;2023-03-04T03:27:43;7.50;8.30
1429;DHT22;708;51.442;7.016;2023-03-04T03:30:11;7.40;1.00
1429;DHT22;708;51.442;7.016;2023-03-04T03:32:41;7.40;1.00
1429;DHT22;708;51.442;7.016;2023-03-04T03:35:09;7.40;1.00
1429;DHT22;708;51.442;7.016;2023-03-04T03:37:37;7.50;1.00
1429;DHT22;708;51.442;7.016;2023-03-04T03:40:04;7.60;1.00
1429;DHT22;708;51.442;7.016;2023-03-04T03:42:31;7.60;1.00
1429;DHT22;708;51.442;7.016;2023-03-04T03:44:58;7.50;1.00
1429;DHT22;708;51.442;7.016;2023-03-04T03:47:25;7.60;16.20
1429;DHT22;708;51.442;7.016;2023-03-04T03:49:52;7.60;1.00
1429;DHT22;708;51.442;7.016;2023-03-04T03:52:20;7.60;1.00
1429;DHT22;708;51.442;7.016;2023-03-04T03:54:47;7.60;1.00
1429;DHT22;708;51.442;7.016;2023-03-04T03:57:14;7.50;1.00
1429;DHT22;708;51.442;7.016;2023-03-04T03:59:41;7.50;1.00
1429;DHT22;708;51.442;7.016;2023-03-04T04:02:08;7.60;1.00
1429;DHT22;708;51.442;7.016;2023-03-04T04:04:35;7.50;1.00
1429;DHT22;708;51.442;7.016;2023-03-04T04:07:02;7.60;1.00
1429;DHT22;708;51.442;7.016;2023-03-04T04:09:33;7.60;1.00
1429;DHT22;708;51.442;7.016;2023-03-04T04:12:00;7.60;1.00
1429;DHT22;708;51.442;7.016;2023-03-04T04:14:27;7.70;1.00
1429;DHT22;708;51.442;7.016;2023-03-04T04:16:53;7.60;1.00
1429;DHT22;708;51.442;7.016;2023-03-04T04:19:20;7.60;1.00
1429;DHT22;708;51.442;7.016;2023-03-04T04:21:47;7.60;1.00
1429;DHT22;708;51.442;7.016;2023-03-04T04:24:14;7.60;1.00
1429;DHT22;708;51.442;7.016;2023-03-04T04:26:42;7.60;1.00
1429;DHT22;708;51.442;7.016;2023-03-04T04:29:12;7.60;28.30
1429;DHT22;708;51.442;7.016;2023-03-04T04:31:39;7.60;42.40
1429;DHT22;708;51.442;7.016;2023-03-04T04:34:09;7.60;36.20
1429;DHT22;708;51.442;7.016;2023-03-04T04:36:36;7.60;50.70
1429;DHT22;708;51.442;7.016;2023-03-04T04:39:03;7.60;61.00
1429;DHT22;708;51.442;7.016;2023-03-04T04:41:35;7.60;30.70
1429;DHT22;708;51.442;7.016;2023-03-04T04:44:04;7.60;46.60
1429;DHT22;708;51.442;7.016;2023-03-04T04:46:33;7.60;54.90
1429;DHT22;708;51.442;7.016;2023-03-04T04:49:00;7.50;71.00
1429;DHT22;708;51.442;7.016;2023-03-04T04:51:27;7.50;99.90
1429;DHT22;708;51.442;7.016;2023-03-04T04:53:54;7.50;99.90
1429;DHT22;708;51.442;7.016;2023-03-04T04:56:23;7.40;99.90
1429;DHT22;708;51.442;7.016;2023-03-04T04:58:51;7.40;99.90
1429;DHT22;708;51.442;7.016;2023-03-04T05:01:20;7.50;99.90
1429;DHT22;708;51.442;7.016;2023-03-04T05:03:47;7.50;99.90
1429;DHT22;708;51.442;7.016;2023-03-04T05:06:18;7.50;99.90
1429;DHT22;708;51.442;7.016;2023-03-04T05:08:45;7.50;99.90
1429;DHT22;708;51.442;7.016;2023-03-04T05:11:12;7.50;99.90
1429;DHT22;708;51.442;7.016;2023-03-04T05:13:39;7.50;99.90
1429;DHT22;708;51.442;7.016;2023-03-04T05:16:07;7.50;99.90
1429;DHT22;708;51.442;7.016;2023-03-04T05:18:35;7.50;99.90
1429;DHT22;708;51.442;7.016;2023-03-04T05:21:04;7.50;99.90
1429;DHT22;708;51.442;7.016;2023-03-04T05:23:33;7.50;99.90
1429;DHT22;708;51.442;7.016;2023-03-04T05:26:00;7.40;99.90
1429;DHT22;708;51.442;7.016;2023-03-04T05:28:27;7.50;99.90
1429;DHT22;708;51.442;7.016;2023-03-04T05:30:54;7.50;99.90
1429;DHT22;708;51.442;7.016;2023-03-04T05:33:21;7.50;99.90
1429;DHT22;708;51.442;7.016;2023-03-04T05:35:49;7.50;99.90
1429;DHT22;708;51.442;7.016;2023-03-04T05:38:18;7.50;99.90
1429;DHT22;708;51.442;7.016;2023-03-04T05:40:46;7.50;99.90
1429;DHT22;708;51.442;7.016;2023-03-04T05:43:14;7.50;99.90
1429;DHT22;708;51.442;7.016;2023-03-04T05:45:41;7.60;99.90
1429;DHT22;708;51.442;7.016;2023-03-04T05:48:08;7.60;99.90
1429;DHT22;708;51.442;7.016;2023-03-04T05:50:36;7.60;99.90
1429;DHT22;708;51.442;7.016;2023-03-04T05:53:04;7.60;99.90
1429;DHT22;708;51.442;7.016;2023-03-04T05:55:31;7.60;99.90
1429;DHT22;708;51.442;7.016;2023-03-04T05:57:58;7.60;99.90
1429;DHT22;708;51.442;7.016;2023-03-04T06:00:25;7.60;99.90
1429;DHT22;708;51.442;7.016;2023-03-04T06:02:52;7.60;99.90
1429;DHT22;708;51.442;7.016;2023-03-04T06:05:19;7.50;99.90
1429;DHT22;708;51.442;7.016;2023-03-04T06:07:46;7.60;99.90
1429;DHT22;708;51.442;7.016;2023-03-04T06:10:16;7.50;99.90
1429;DHT22;708;51.442;7.016;2023-03-04T06:12:44;7.60;99.90
1429;DHT22;708;51.442;7.016;2023-03-04T06:15:11;7.60;99.90
1429;DHT22;708;51.442;7.016;2023-03-04T06:17:39;7.60;99.90
1429;DHT22;708;51.442;7.016;2023-03-04T06:20:08;7.60;99.90
1429;DHT22;708;51.442;7.016;2023-03-04T06:22:35;7.50;99.90
1429;DHT22;708;51.442;7.016;2023-03-04T06:25:02;7.60;99.90
1429;DHT22;708;51.442;7.016;2023-03-04T06:27:31;7.60;99.90
1429;DHT22;708;51.442;7.016;2023-03-04T06:29:58;7.60;99.90
1429;DHT22;708;51.442;7.016;2023-03-04T06:32:26;7.60;99.90
1429;DHT22;708;51.442;7.016;2023-03-04T06:34:53;7.60;78.20
1429;DHT22;708;51.442;7.016;2023-03-04T06:37:20;7.60;88.50
1429;DHT22;708;51.442;7.016;2023-03-04T06:39:46;7.60;58.10
1429;DHT22;708;51.442;7.016;2023-03-04T06:42:13;7.60;93.30
1429;DHT22;708;51.442;7.016;2023-03-04T06:44:44;7.60;99.90
1429;DHT22;708;51.442;7.016;2023-03-04T06:47:11;7.60;99.90
1429;DHT22;708;51.442;7.016;2023-03-04T06:49:40;7.60;99.90
1429;DHT22;708;51.442;7.016;2023-03-04T06:52:12;7.60;99.90
1429;DHT22;708;51.442;7.016;2023-03-04T06:54:39;7.60;99.90
1429;DHT22;708;51.442;7.016;2023-03-04T06:57:06;7.60;99.90
1429;DHT22;708;51.442;7.016;2023-03-04T06:59:42;7.60;99.90
1429;DHT22;708;51.442;7.016;2023-03-04T07:02:10;7.70;99.90
1429;DHT22;708;51.442;7.016;2023-03-04T07:04:39;7.70;99.90
1429;DHT22;708;51.442;7.016;2023-03-04T07:07:06;7.80;99.90
1429;DHT22;708;51.442;7.016;2023-03-04T07:09:33;7.80;99.90
1429;DHT22;708;51.442;7.016;2023-03-04T07:12:03;7.90;99.90
1429;DHT22;708;51.442;7.016;2023-03-04T07:14:30;7.90;99.90
1429;DHT22;708;51.442;7.016;2023-03-04T07:16:58;7.90;99.90
1429;DHT22;708;51.442;7.016;2023-03-04T07:19:25;7.90;99.90
1429;DHT22;708;51.442;7.016;2023-03-04T07:21:52;7.90;99.90
1429;DHT22;708;51.442;7.016;2023-03-04T07:24:18;7.90;99.90
1429;DHT22;708;51.442;7.016;2023-03-04T07:26:45;7.90;99.90
1429;DHT22;708;51.442;7.016;2023-03-04T07:29:12;7.90;99.90
1429;DHT22;708;51.442;7.016;2023-03-04T07:31:39;8.00;99.90
1429;DHT22;708;51.442;7.016;2023-03-04T07:34:10;8.00;1.00
1429;DHT22;708;51.442;7.016;2023-03-04T07:36:38;8.00;1.00
1429;DHT22;708;51.442;7.016;2023-03-04T07:39:06;8.10;1.00
1429;DHT22;708;51.442;7.016;2023-03-04T07:41:33;8.10;1.00
1429;DHT22;708;51.442;7.016;2023-03-04T07:44:02;8.10;1.00
1429;DHT22;708;51.442;7.016;2023-03-04T07:46:29;8.10;1.00
1429;DHT22;708;51.442;7.016;2023-03-04T07:48:56;8.20;1.00
1429;DHT22;708;51.442;7.016;2023-03-04T07:51:26;8.20;1.00
1429;DHT22;708;51.442;7.016;2023-03-04T07:53:55;8.10;1.00
1429;DHT22;708;51.442;7.016;2023-03-04T07:56:27;8.10;74.50
1429;DHT22;708;51.442;7.016;2023-03-04T07:58:54;8.10;99.90
1429;DHT22;708;51.442;7.016;2023-03-04T08:01:23;8.30;99.90
1429;DHT22;708;51.442;7.016;2023-03-04T08:03:57;8.40;99.90
1429;DHT22;708;51.442;7.016;2023-03-04T08:06:26;8.50;99.90
1429;DHT22;708;51.442;7.016;2023-03-04T08:08:56;8.80;5.70
1429;DHT22;708;51.442;7.016;2023-03-04T08:11:23;9.10;99.90
1429;DHT22;708;51.442;7.016;2023-03-04T08:13:50;9.50;99.90
1429;DHT22;708;51.442;7.016;2023-03-04T08:16:19;9.80;99.90
1429;DHT22;708;51.442;7.016;2023-03-04T08:18:48;10.20;1.00
1429;DHT22;708;51.442;7.016;2023-03-04T08:21:20;10.40;1.00
1429;DHT22;708;51.442;7.016;2023-03-04T08:23:50;10.60;1.00
1429;DHT22;708;51.442;7.016;2023-03-04T08:26:19;10.80;1.00
1429;DHT22;708;51.442;7.016;2023-03-04T08:28:47;10.90;99.90
1429;DHT22;708;51.442;7.016;2023-03-04T08:31:15;11.40;99.90
1429;DHT22;708;51.442;7.016;2023-03-04T08:33:42;11.80;99.90
1429;DHT22;708;51.442;7.016;2023-03-04T08:36:11;12.30;99.90
1429;DHT22;708;51.442;7.016;2023-03-04T08:38:38;12.50;99.90
1429;DHT22;708;51.442;7.016;2023-03-04T08:41:06;12.70;99.90
1429;DHT22;708;51.442;7.016;2023-03-04T08:43:33;12.80;99.90
1429;DHT22;708;51.442;7.016;2023-03-04T08:46:00;12.90;99.90
1429;DHT22;708;51.442;7.016;2023-03-04T08:48:27;12.80;99.90
1429;DHT22;708;51.442;7.016;2023-03-04T08:50:54;12.60;99.90
1429;DHT22;708;51.442;7.016;2023-03-04T08:53:23;12.30;99.90
1429;DHT22;708;51.442;7.016;2023-03-04T08:55:52;12.00;99.90
1429;DHT22;708;51.442;7.016;2023-03-04T08:58:20;11.50;99.90
1429;DHT22;708;51.442;7.016;2023-03-04T09:00:47;11.20;99.90
1429;DHT22;708;51.442;7.016;2023-03-04T09:03:16;11.00;1.00
1429;DHT22;708;51.442;7.016;2023-03-04T09:05:44;10.70;1.00
1429;DHT22;708;51.442;7.016;2023-03-04T09:08:11;10.50;99.90
1429;DHT22;708;51.442;7.016;2023-03-04T09:10:39;10.40;99.90
1429;DHT22;708;51.442;7.016;2023-03-04T09:13:06;10.20;99.90
1429;DHT22;708;51.442;7.016;2023-03-04T09:15:37;10.20;99.90
1429;DHT22;708;51.442;7.016;2023-03-04T09:18:09;10.10;1.00
1429;DHT22;708;51.442;7.016;2023-03-04T09:20:36;10.10;1.00
1429;DHT22;708;51.442;7.016;2023-03-04T09:23:02;10.00;1.00
1429;DHT22;708;51.442;7.016;2023-03-04T09:25:29;10.00;1.00
1429;DHT22;708;51.442;7.016;2023-03-04T09:27:58;9.90;1.00
1429;DHT22;708;51.442;7.016;2023-03-04T09:30:29;9.90;28.50
1429;DHT22;708;51.442;7.016;2023-03-04T09:32:57;10.00;53.00
1429;DHT22;708;51.442;7.016;2023-03-04T09:35:24;10.00;1.00
1429;DHT22;708;51.442;7.016;2023-03-04T09:37:51;10.00;99.90
1429;DHT22;708;51.442;7.016;2023-03-04T09:40:21;10.00;81.70
1429;DHT22;708;51.442;7.016;2023-03-04T09:42:51;10.10;99.90
1429;DHT22;708;51.442;7.016;2023-03-04T09:45:22;10.20;1.00
1429;DHT22;708;51.442;7.016;2023-03-04T09:47:52;10.50;99.90
1429;DHT22;708;51.442;7.016;2023-03-04T09:50:22;10.70;1.00
1429;DHT22;708;51.442;7.016;2023-03-04T09:53:00;10.90;41.50
1429;DHT22;708;51.442;7.016;2023-03-04T09:55:34;11.00;99.90
1429;DHT22;708;51.442;7.016;2023-03-04T09:58:08;11.10;1.00
1429;DHT22;708;51.442;7.016;2023-03-04T10:00:44;11.30;1.00
1429;DHT22;708;51.442;7.016;2023-03-04T10:03:16;11.40;99.90
1429;DHT22;708;51.442;7.016;2023-03-04T10:05:50;11.60;99.90
1429;DHT22;708;51.442;7.016;2023-03-04T10:08:39;12.00;11.70
1429;DHT22;708;51.442;7.016;2023-03-04T10:11:12;12.20;1.00
1429;DHT22;708;51.442;7.016;2023-03-04T10:13:46;12.30;1.00
1429;DHT22;708;51.442;7.016;2023-03-04T10:16:19;12.30;99.90
1429;DHT22;708;51.442;7.016;2023-03-04T10:18:51;12.20;99.90
1429;DHT22;708;51.442;7.016;2023-03-04T10:21:27;12.20;99.90
1429;DHT22;708;51.442;7.016;2023-03-04T10:23:56;12.20;1.00
1429;DHT22;708;51.442;7.016;2023-03-04T10:26:28;12.00;1.00
1429;DHT22;708;51.442;7.016;2023-03-04T10:28:55;11.80;1.00
1429;DHT22;708;51.442;7.016;2023-03-04T10:31:30;11.70;1.00
1429;DHT22;708;51.442;7.016;2023-03-04T10:33:58;11.60;1.00
1429;DHT22;708;51.442;7.016;2023-03-04T10:36:35;11.60;1.00
1429;DHT22;708;51.442;7.016;2023-03-04T10:39:08;11.70;1.00
1429;DHT22;708;51.442;7.016;2023-03-04T10:41:35;11.60;1.00
1429;DHT22;708;51.442;7.016;2023-03-04T10:44:04;11.70;1.00
1429;DHT22;708;51.442;7.016;2023-03-04T10:46:38;12.00;1.00
1429;DHT22;708;51.442;7.016;2023-03-04T10:49:05;12.00;1.00
1429;DHT22;708;51.442;7.016;2023-03-04T10:51:41;11.80;1.00
1429;DHT22;708;51.442;7.016;2023-03-04T10:54:15;11.40;1.00
1429;DHT22;708;51.442;7.016;2023-03-04T10:56:52;11.20;1.00
1429;DHT22;708;51.442;7.016;2023-03-04T10:59:32;11.20;31.80
1429;DHT22;708;51.442;7.016;2023-03-04T11:02:09;11.40;1.00
1429;DHT22;708;51.442;7.016;2023-03-04T11:04:39;11.50;1.00
1429;DHT22;708;51.442;7.016;2023-03-04T11:07:09;11.60;1.00
1429;DHT22;708;51.442;7.016;2023-03-04T11:09:36;11.60;1.00
1429;DHT22;708;51.442;7.016;2023-03-04T11:12:09;11.70;1.00
1429;DHT22;708;51.442;7.016;2023-03-04T11:14:39;11.80;1.00
1429;DHT22;708;51.442;7.016;2023-03-04T11:17:21;11.80;1.00
1429;DHT22;708;51.442;7.016;2023-03-04T11:19:54;12.00;1.00
1429;DHT22;708;51.442;7.016;2023-03-04T11:22:27;12.20;1.00
1429;DHT22;708;51.442;7.016;2023-03-04T11:25:01;12.50;99.90
1429;DHT22;708;51.442;7.016;2023-03-04T11:27:35;12.50;99.90
1429;DHT22;708;51.442;7.016;2023-03-04T11:30:18;12.40;99.90
1429;DHT22;708;51.442;7.016;2023-03-04T11:32:50;12.20;99.90
1429;DHT22;708;51.442;7.016;2023-03-04T11:35:24;12.10;1.00
1429;DHT22;708;51.442;7.016;2023-03-04T11:37:58;12.00;1.00
1429;DHT22;708;51.442;7.016;2023-03-04T11:40:30;12.00;99.90
1429;DHT22;708;51.442;7.016;2023-03-04T11:43:01;12.10;99.90
1429;DHT22;708;51.442;7.016;2023-03-04T11:45:43;12.20;99.90
1429;DHT22;708;51.442;7.016;2023-03-04T11:48:16;12.20;99.90
1429;DHT22;708;51.442;7.016;2023-03-04T11:50:48;12.00;99.90
1429;DHT22;708;51.442;7.016;2023-03-04T11:53:38;11.80;99.90
1429;DHT22;708;51.442;7.016;2023-03-04T11:56:21;11.50;1.00
1429;DHT22;708;51.442;7.016;2023-03-04T11:59:31;11.30;1.00
1429;DHT22;708;51.442;7.016;2023-03-04T12:02:18;11.10;84.70
1429;DHT22;708;51.442;7.016;2023-03-04T12:05:10;11.10;99.90
1429;DHT22;708;51.442;7.016;2023-03-04T12:07:53;11.10;99.90
1429;DHT22;708;51.442;7.016;2023-03-04T12:10:28;11.00;99.90
1429;DHT22;708;51.442;7.016;2023-03-04T12:13:26;11.00;99.90
1429;DHT22;708;51.442;7.016;2023-03-04T12:16:08;10.90;1.00
1429;DHT22;708;51.442;7.016;2023-03-04T12:18:46;10.90;1.00
1429;DHT22;708;51.442;7.016;2023-03-04T12:21:24;11.10;1.00
1429;DHT22;708;51.442;7.016;2023-03-04T12:24:23;11.30;99.90
1429;DHT22;708;51.442;7.016;2023-03-04T12:27:00;11.50;99.90
1429;DHT22;708;51.442;7.016;2023-03-04T12:29:33;11.80;15.00
1429;DHT22;708;51.442;7.016;2023-03-04T12:32:10;11.90;1.00
1429;DHT22;708;51.442;7.016;2023-03-04T12:35:02;11.90;1.00
1429;DHT22;708;51.442;7.016;2023-03-04T12:37:42;11.90;1.00
1429;DHT22;708;51.442;7.016;2023-03-04T12:40:29;11.80;1.00
1429;DHT22;708;51.442;7.016;2023-03-04T12:43:10;11.70;1.00
1429;DHT22;708;51.442;7.016;2023-03-04T12:45:52;11.50;1.00
1429;DHT22;708;51.442;7.016;2023-03-04T12:48:29;11.30;99.90
1429;DHT22;708;51.442;7.016;2023-03-04T12:51:08;11.10;99.90
1429;DHT22;708;51.442;7.016;2023-03-04T12:53:45;10.90;1.00
1429;DHT22;708;51.442;7.016;2023-03-04T12:56:22;10.80;99.90
1429;DHT22;708;51.442;7.016;2023-03-04T12:58:52;10.60;1.00
1429;DHT22;708;51.442;7.016;2023-03-04T13:01:23;10.40;1.00
1429;DHT22;708;51.442;7.016;2023-03-04T13:03:56;10.20;1.00
1429;DHT22;708;51.442;7.016;2023-03-04T13:06:33;10.00;1.00
1429;DHT22;708;51.442;7.016;2023-03-04T13:09:06;9.90;1.00
1429;DHT22;708;51.442;7.016;2023-03-04T13:11:43;9.80;99.90
1429;DHT22;708;51.442;7.016;2023-03-04T13:14:33;9.80;99.90
1429;DHT22;708;51.442;7.016;2023-03-04T13:17:17;9.80;99.90
1429;DHT22;708;51.442;7.016;2023-03-04T13:19:55;9.90;99.90
1429;DHT22;708;51.442;7.016;2023-03-04T13:22:41;10.10;99.90
1429;DHT22;708;51.442;7.016;2023-03-04T13:25:33;10.40;59.80
1429;DHT22;708;51.442;7.016;2023-03-04T13:28:21;10.60;1.00
1429;DHT22;708;51.442;7.016;2023-03-04T13:31:21;10.80;99.90
1429;DHT22;708;51.442;7.016;2023-03-04T13:34:00;10.90;99.90
1429;DHT22;708;51.442;7.016;2023-03-04T13:36:53;11.00;39.50
1429;DHT22;708;51.442;7.016;2023-03-04T13:39:41;11.00;1.00
1429;DHT22;708;51.442;7.016;2023-03-04T13:45:33;11.00;99.90
1429;DHT22;708;51.442;7.016;2023-03-04T13:48:05;10.90;99.90
1429;DHT22;708;51.442;7.016;2023-03-04T13:50:37;10.70;1.00
1429;DHT22;708;51.442;7.016;2023-03-04T13:53:39;10.60;1.00
1429;DHT22;708;51.442;7.016;2023-03-04T13:56:28;10.50;99.90
1429;DHT22;708;51.442;7.016;2023-03-04T14:02:01;10.40;1.00
1429;DHT22;708;51.442;7.016;2023-03-04T14:04:32;10.50;1.00
1429;DHT22;708;51.442;7.016;2023-03-04T14:07:01;10.60;99.90
1429;DHT22;708;51.442;7.016;2023-03-04T14:09:30;10.70;1.00
1429;DHT22;708;51.442;7.016;2023-03-04T14:12:01;10.70;99.90
1429;DHT22;708;51.442;7.016;2023-03-04T14:14:31;10.70;1.00
1429;DHT22;708;51.442;7.016;2023-03-04T14:17:00;10.70;80.60
1429;DHT22;708;51.442;7.016;2023-03-04T14:19:31;10.60;37.60
1429;DHT22;708;51.442;7.016;2023-03-04T14:22:00;10.50;99.90
1429;DHT22;708;51.442;7.016;2023-03-04T14:24:27;10.50;99.90
1429;DHT22;708;51.442;7.016;2023-03-04T14:27:11;10.40;99.90
1429;DHT22;708;51.442;7.016;2023-03-04T14:29:38;10.30;99.90
1429;DHT22;708;51.442;7.016;2023-03-04T14:32:05;10.30;53.20
1429;DHT22;708;51.442;7.016;2023-03-04T14:34:36;10.40;99.90
1429;DHT22;708;51.442;7.016;2023-03-04T14:37:19;10.40;99.90
1429;DHT22;708;51.442;7.016;2023-03-04T14:39:47;10.40;99.90
1429;DHT22;708;51.442;7.016;2023-03-04T14:42:16;10.40;1.00
1429;DHT22;708;51.442;7.016;2023-03-04T14:44:48;10.40;99.90
1429;DHT22;708;51.442;7.016;2023-03-04T14:47:18;10.50;1.00
1429;DHT22;708;51.442;7.016;2023-03-04T14:49:48;10.50;1.00
1429;DHT22;708;51.442;7.016;2023-03-04T14:52:32;10.60;99.90
1429;DHT22;708;51.442;7.016;2023-03-04T14:55:01;10.70;39.00
1429;DHT22;708;51.442;7.016;2023-03-04T14:57:34;10.70;1.00
1429;DHT22;708;51.442;7.016;2023-03-04T15:00:26;10.80;99.90
1429;DHT22;708;51.442;7.016;2023-03-04T15:02:54;10.90;1.00
1429;DHT22;708;51.442;7.016;2023-03-04T15:05:26;11.00;1.00
1429;DHT22;708;51.442;7.016;2023-03-04T15:07:54;11.00;99.90
1429;DHT22;708;51.442;7.016;2023-03-04T15:10:26;10.90;99.90
1429;DHT22;708;51.442;7.016;2023-03-04T15:12:54;10.90;99.90
1429;DHT22;708;51.442;7.016;2023-03-04T15:15:33;10.80;99.90
1429;DHT22;708;51.442;7.016;2023-03-04T15:18:02;10.80;99.90
1429;DHT22;708;51.442;7.016;2023-03-04T15:20:31;10.80;99.90
1429;DHT22;708;51.442;7.016;2023-03-04T15:23:01;10.80;37.60
1429;DHT22;708;51.442;7.016;2023-03-04T15:25:28;10.80;1.00
1429;DHT22;708;51.442;7.016;2023-03-04T15:27:56;10.80;1.00
1429;DHT22;708;51.442;7.016;2023-03-04T15:30:25;10.80;99.90
1429;DHT22;708;51.442;7.016;2023-03-04T15:32:54;10.70;99.90
1429;DHT22;708;51.442;7.016;2023-03-04T15:35:22;10.70;99.90
1429;DHT22;708;51.442;7.016;2023-03-04T15:37:51;10.70;99.90
1429;DHT22;708;51.442;7.016;2023-03-04T15:40:26;10.60;99.90
1429;DHT22;708;51.442;7.016;2023-03-04T15:42:55;10.60;99.90
1429;DHT22;708;51.442;7.016;2023-03-04T15:45:25;10.50;99.90
1429;DHT22;708;51.442;7.016;2023-03-04T15:47:52;10.50;99.90
1429;DHT22;708;51.442;7.016;2023-03-04T15:50:20;10.50;99.90
1429;DHT22;708;51.442;7.016;2023-03-04T15:52:47;10.50;99.90
1429;DHT22;708;51.442;7.016;2023-03-04T15:55:17;10.50;99.90
1429;DHT22;708;51.442;7.016;2023-03-04T15:57:45;10.50;99.90
1429;DHT22;708;51.442;7.016;2023-03-04T16:00:14;10.50;99.90
1429;DHT22;708;51.442;7.016;2023-03-04T16:02:41;10.50;99.90
1429;DHT22;708;51.442;7.016;2023-03-04T16:05:08;10.50;99.90
1429;DHT22;708;51.442;7.016;2023-03-04T16:07:36;10.50;99.90
1429;DHT22;708;51.442;7.016;2023-03-04T16:10:07;10.40;99.90
1429;DHT22;708;51.442;7.016;2023-03-04T16:12:39;10.40;99.90
1429;DHT22;708;51.442;7.016;2023-03-04T16:15:13;10.40;85.50
1429;DHT22;708;51.442;7.016;2023-03-04T16:17:40;10.30;1.00
1429;DHT22;708;51.442;7.016;2023-03-04T16:20:11;10.20;1.00
1429;DHT22;708;51.442;7.016;2023-03-04T16:22:38;10.10;1.00
1429;DHT22;708;51.442;7.016;2023-03-04T16:25:09;10.10;1.00
1429;DHT22;708;51.442;7.016;2023-03-04T16:27:36;10.00;1.00
1429;DHT22;708;51.442;7.016;2023-03-04T16:30:06;10.00;1.00
1429;DHT22;708;51.442;7.016;2023-03-04T16:32:33;10.00;1.00
1429;DHT22;708;51.442;7.016;2023-03-04T16:35:01;9.90;1.00
1429;DHT22;708;51.442;7.016;2023-03-04T16:37:28;9.90;1.00
1429;DHT22;708;51.442;7.016;2023-03-04T16:39:54;9.90;1.00
1429;DHT22;708;51.442;7.016;2023-03-04T16:42:21;9.90;1.00
1429;DHT22;708;51.442;7.016;2023-03-04T16:44:48;9.90;1.00
1429;DHT22;708;51.442;7.016;2023-03-04T16:47:17;9.80;1.00
1429;DHT22;708;51.442;7.016;2023-03-04T16:49:43;9.80;1.00
1429;DHT22;708;51.442;7.016;2023-03-04T16:52:18;9.80;1.00
1429;DHT22;708;51.442;7.016;2023-03-04T16:54:47;9.70;99.90
1429;DHT22;708;51.442;7.016;2023-03-04T16:57:14;9.70;99.90
1429;DHT22;708;51.442;7.016;2023-03-04T16:59:41;9.70;99.90
1429;DHT22;708;51.442;7.016;2023-03-04T17:02:13;9.70;99.90
1429;DHT22;708;51.442;7.016;2023-03-04T17:04:41;9.70;99.90